Uwharie, North Carolina
Current Conditions -  °F | °C
As of 11:55 PM on Monday 20 Oct 2014 (Local Time) from KVUJ Reporting Station
Drizzle Drizzle  
Wind Chill: 56°   Ceiling: 9000
Heat Index: 56°   Visibility: 10mi
Dew Point: 52°   Wind: 5mph
Humidity: 87%   Direction: 230°SW
Pressure: 30.02"   Gusts: NA
Location:  35.4086°N, 79.9566°W
Report Text: KVUJ 210355Z AUTO 23004KT 10SM DZ OVC090 13/11 A3002 RMK AO2 T01340113
Loading
Personal Weather Stations






























Interactive Weather Map
Tropical Storm Tracking
New forecast layout! Learn more

10-Day Weather Forecast

Advertisements
Track Severe Weather on mobile